Αναφορές Αεροδρομίων

 

KSJC - San Jose, California, USA
Distance from station: ΒΑ 14km
Ενημερώθηκε: 26/05/2022 03:53
Σχεδόν νεφελώδης
Σχεδόν νεφελώδης
 Ανεμος από ΒΒΔ
Ανεμος: ΒΒΔ 24 km/h
Θερμοκρασία: 28°C
Σημείο Δρόσου: 12°C
Υγρασία: 37%
Βαρόμετρο: 1008.5 hPa
Clouds: Σχεδόν νεφελώδης
Visibility: 16 km
Cloud details: Σχεδόν νεφελώδης 3048 m
Σχεδόν νεφελώδης 4877 m
2022/05/26 00:53 KSJC 260053Z 34013KT 10SM BKN100 BKN160 28/12 A2978 RMK AO2 SLP084 T02780122
KNUQ - Moffett Nas/Mtn, California, USA
Distance from station: Β 14km
Ενημερώθηκε: 26/05/2022 04:10
Αίθριος
Αίθριος
 Ανεμος από ΒΔ
Ανεμος: ΒΔ 20 km/h
Θερμοκρασία: 23°C
Σημείο Δρόσου: 13°C
Υγρασία: 53%
Βαρόμετρο: 1008.8 hPa
Clouds: Αίθριος
Visibility: 16 km
2022/05/26 01:10 KNUQ 260110Z AUTO 32011KT 10SM CLR 23/13 A2979 RMK AO2
 
KPAO - Palo Alto, California, USA
Distance from station: ΒΒΔ 23km
Ενημερώθηκε: 26/05/2022 03:47
Αίθριος
Αίθριος
 Ανεμος από ΒΔ
Ανεμος: ΒΔ 24 km/h
Θερμοκρασία: 22°C
Σημείο Δρόσου: 13°C
Υγρασία: 57%
Βαρόμετρο: 1009.1 hPa
Clouds: Αίθριος
Visibility: 16 km
2022/05/26 00:47 KPAO 260047Z 32013KT 10SM SKC 22/13 A2980
KRHV - San Jose/Reid, California, USA
Distance from station: ΑΒΑ 19km
Ενημερώθηκε: 26/05/2022 02:47
NOT Current
Σχεδόν νεφελώδης
Σχεδόν νεφελώδης
 Ανεμος από ΒΔ
Ανεμος: ΒΔ 19 km/h
Θερμοκρασία: 31°C
Σημείο Δρόσου: 12°C
Υγρασία: 31%
Βαρόμετρο: 1008.5 hPa
Clouds: Σχεδόν νεφελώδης
Visibility: 16 km
Cloud details: Σχεδόν νεφελώδης 4572 m
2022/05/25 23:47 KRHV 252347Z 31010KT 10SM BKN150 31/12 A2978
 
KOAK - Oakland, California, USA
Distance from station: ΒΒΔ 50km
Ενημερώθηκε: 26/05/2022 03:53
Σχεδόν νεφελώδης
Σχεδόν νεφελώδης
 Ανεμος από ΒΒΔ
Ανεμος: ΒΒΔ 17 km/h
Θερμοκρασία: 20°C
Σημείο Δρόσου: 12°C
Υγρασία: 60%
Βαρόμετρο: 1009.5 hPa
Clouds: Σχεδόν νεφελώδης
Visibility: 16 km
Cloud details: Few Clouds 305 m
Σχεδόν νεφελώδης 6706 m
2022/05/26 00:53 KOAK 260053Z 33009KT 10SM FEW010 BKN220 20/12 A2981 RMK AO2 SLP095 T02000117
KSQL - San Carlos Airpo, California, USA
Distance from station: ΒΔ 34km
Ενημερώθηκε: 26/05/2022 03:58
Μερικώς νεφελώδης
Μερικώς νεφελώδης
 Ανεμος από Β
Ανεμος: Β 24 km/h
Θερμοκρασία: 20°C
Σημείο Δρόσου: 15°C
Υγρασία: 73%
Βαρόμετρο: 1009.1 hPa
Clouds: Μερικώς νεφελώδης
Visibility: 16 km
Cloud details: Μερικώς νεφελώδης 6096 m
2022/05/26 00:58 KSQL 260058Z 36013KT 10SM SCT200 20/15 A2980
 
KSFO - San Francisco, California, USA
Distance from station: ΒΔ 49km
Ενημερώθηκε: 26/05/2022 03:56
Σχεδόν νεφελώδης
Σχεδόν νεφελώδης
 Ανεμος από ΔΒΔ
Ανεμος: ΔΒΔ 17 km/h
Θερμοκρασία: 25°C
Σημείο Δρόσου: 9°C
Υγρασία: 36%
Βαρόμετρο: 1008.8 hPa
Clouds: Σχεδόν νεφελώδης
Visibility: 16 km
Cloud details: Few Clouds 152 m
Σχεδόν νεφελώδης 6096 m
2022/05/26 00:56 KSFO 260056Z 30009KT 10SM R28R/2200VP6000FT FEW005 BKN200 25/09 A2979 RMK AO2 SLP087 T02500094
KE16 - San Martin, California, USA
Distance from station: ΑΝΑ 43km
Ενημερώθηκε: 26/05/2022 04:15
Αίθριος
Αίθριος
 Ανεμος από ΝΑ
Ανεμος: ΝΑ 24 km/h
Θερμοκρασία: 23°C
Σημείο Δρόσου: 10°C
Υγρασία: 44%
Βαρόμετρο: 1009.8 hPa
Clouds: Αίθριος
Visibility: 16 km
2022/05/26 01:15 KE16 260115Z AUTO 13013KT 10SM CLR 23/10 A2982 RMK AO2 PWINO PNO
 
KWVI - Watsonville, California, USA
Distance from station: ΝΝΑ 44km
Ενημερώθηκε: 26/05/2022 03:53
Αίθριος
Αίθριος
 Ανεμος από ΔΝΔ
Ανεμος: ΔΝΔ 9 km/h
Θερμοκρασία: 16°C
Σημείο Δρόσου: 11°C
Υγρασία: 72%
Βαρόμετρο: 1011.5 hPa
Clouds: Αίθριος
Visibility: 16 km
2022/05/26 00:53 KWVI 260053Z AUTO 25005KT 10SM CLR 16/11 A2987 RMK AO2 SLP115 T01610111
KHAF - Half Moon Bay, California, USA
Distance from station: ΔΒΔ 50km
Ενημερώθηκε: 26/05/2022 04:15
Mist, Συννεφιά
Mist, Συννεφιά
 Ανεμος από ΝΝΑ
Ανεμος: ΝΝΑ 22 km/h
Θερμοκρασία: 12°C
Σημείο Δρόσου: 12°C
Υγρασία: 100%
Βαρόμετρο: 1010.8 hPa
Περίληψη: Mist
Clouds: Συννεφιά
Visibility: 0.8 km
Cloud details: Συννεφιά 91 m
2022/05/26 01:15 KHAF 260115Z AUTO 16012KT 1/2SM BR OVC003 12/12 A2985 RMK AO2
 
KHWD - Hayward, California, USA
Distance from station: Β 44km
Ενημερώθηκε: 26/05/2022 03:54
Αίθριος
Αίθριος
 Ανεμος από ΒΔ
Ανεμος: ΒΔ 15 km/h
Θερμοκρασία: 23°C
Σημείο Δρόσου: 11°C
Υγρασία: 47%
Βαρόμετρο: 1009.1 hPa
Clouds: Αίθριος
Visibility: 16 km
2022/05/26 00:54 KHWD 260054Z 32008KT 10SM CLR 23/11 A2980 RMK AO2 SLP100 T02280106
KLVK - Livermore, California, USA
Distance from station: ΒΒΑ 51km
Ενημερώθηκε: 26/05/2022 03:53
Αίθριος
Αίθριος
 Ανεμος από Δ
Ανεμος: Δ 19 km/h
Θερμοκρασία: 31°C
Σημείο Δρόσου: 8°C
Υγρασία: 24%
Βαρόμετρο: 1007.8 hPa
Clouds: Αίθριος
Visibility: 16 km
2022/05/26 00:53 KLVK 260053Z 28010KT 10SM CLR 31/08 A2976 RMK AO2 SLP074 T03110078